sensor_id;sensor_type;location;lat;lon;timestamp;temperature;humidity
10278;DHT22;5184;51.376;7.148;2022-10-29T00:02:18;15.90;1.00
10278;DHT22;5184;51.376;7.148;2022-10-29T00:04:45;15.90;1.00
10278;DHT22;5184;51.376;7.148;2022-10-29T00:07:11;15.90;1.00
10278;DHT22;5184;51.376;7.148;2022-10-29T00:09:38;15.90;1.00
10278;DHT22;5184;51.376;7.148;2022-10-29T00:12:05;15.90;1.00
10278;DHT22;5184;51.376;7.148;2022-10-29T00:14:31;15.90;1.00
10278;DHT22;5184;51.376;7.148;2022-10-29T00:16:58;15.90;21.00
10278;DHT22;5184;51.376;7.148;2022-10-29T00:19:25;15.90;99.90
10278;DHT22;5184;51.376;7.148;2022-10-29T00:21:51;15.90;29.20
10278;DHT22;5184;51.376;7.148;2022-10-29T00:24:18;15.90;99.90
10278;DHT22;5184;51.376;7.148;2022-10-29T00:26:44;15.90;99.90
10278;DHT22;5184;51.376;7.148;2022-10-29T00:29:11;15.80;99.90
10278;DHT22;5184;51.376;7.148;2022-10-29T00:31:38;15.80;99.90
10278;DHT22;5184;51.376;7.148;2022-10-29T00:34:04;15.80;99.90
10278;DHT22;5184;51.376;7.148;2022-10-29T00:36:32;15.80;1.00
10278;DHT22;5184;51.376;7.148;2022-10-29T00:38:59;15.80;99.90
10278;DHT22;5184;51.376;7.148;2022-10-29T00:41:27;15.80;1.00
10278;DHT22;5184;51.376;7.148;2022-10-29T00:46:33;15.80;78.40
10278;DHT22;5184;51.376;7.148;2022-10-29T00:48:59;15.80;1.00
10278;DHT22;5184;51.376;7.148;2022-10-29T00:51:26;15.80;1.00
10278;DHT22;5184;51.376;7.148;2022-10-29T00:53:56;15.80;1.00
10278;DHT22;5184;51.376;7.148;2022-10-29T00:56:22;15.80;1.00
10278;DHT22;5184;51.376;7.148;2022-10-29T00:58:48;15.80;1.00
10278;DHT22;5184;51.376;7.148;2022-10-29T01:01:15;15.80;1.00
10278;DHT22;5184;51.376;7.148;2022-10-29T01:03:42;15.80;86.00
10278;DHT22;5184;51.376;7.148;2022-10-29T01:06:10;15.80;79.20
10278;DHT22;5184;51.376;7.148;2022-10-29T01:08:37;15.80;99.90
10278;DHT22;5184;51.376;7.148;2022-10-29T01:14:37;15.80;99.90
10278;DHT22;5184;51.376;7.148;2022-10-29T01:17:02;15.80;99.90
10278;DHT22;5184;51.376;7.148;2022-10-29T01:22:02;15.70;99.90
10278;DHT22;5184;51.376;7.148;2022-10-29T01:28:07;15.70;99.90
10278;DHT22;5184;51.376;7.148;2022-10-29T01:30:19;15.60;99.90
10278;DHT22;5184;51.376;7.148;2022-10-29T01:33:00;15.60;99.90
10278;DHT22;5184;51.376;7.148;2022-10-29T01:35:29;15.60;1.00
10278;DHT22;5184;51.376;7.148;2022-10-29T01:38:07;15.50;1.00
10278;DHT22;5184;51.376;7.148;2022-10-29T01:40:34;15.50;1.00
10278;DHT22;5184;51.376;7.148;2022-10-29T01:43:05;16.20;99.90
10278;DHT22;5184;51.376;7.148;2022-10-29T01:45:33;15.40;99.90
10278;DHT22;5184;51.376;7.148;2022-10-29T01:48:01;15.40;99.90
10278;DHT22;5184;51.376;7.148;2022-10-29T01:50:26;15.40;1.00
10278;DHT22;5184;51.376;7.148;2022-10-29T01:52:53;15.30;37.30
10278;DHT22;5184;51.376;7.148;2022-10-29T01:55:20;15.30;1.00
10278;DHT22;5184;51.376;7.148;2022-10-29T01:57:47;15.30;1.00
10278;DHT22;5184;51.376;7.148;2022-10-29T02:00:15;15.30;1.00
10278;DHT22;5184;51.376;7.148;2022-10-29T02:02:52;15.30;1.00
10278;DHT22;5184;51.376;7.148;2022-10-29T02:05:31;15.30;99.90
10278;DHT22;5184;51.376;7.148;2022-10-29T02:07:58;15.20;99.90
10278;DHT22;5184;51.376;7.148;2022-10-29T02:10:40;15.20;1.00
10278;DHT22;5184;51.376;7.148;2022-10-29T02:13:04;15.20;1.00
10278;DHT22;5184;51.376;7.148;2022-10-29T02:15:45;15.10;1.00
10278;DHT22;5184;51.376;7.148;2022-10-29T02:18:13;15.10;1.00
10278;DHT22;5184;51.376;7.148;2022-10-29T02:20:41;15.10;1.00
10278;DHT22;5184;51.376;7.148;2022-10-29T02:23:07;15.00;99.90
10278;DHT22;5184;51.376;7.148;2022-10-29T02:25:34;15.00;99.90
10278;DHT22;5184;51.376;7.148;2022-10-29T02:28:02;14.90;99.90
10278;DHT22;5184;51.376;7.148;2022-10-29T02:30:29;14.90;99.90
10278;DHT22;5184;51.376;7.148;2022-10-29T02:32:56;14.90;99.90
10278;DHT22;5184;51.376;7.148;2022-10-29T02:35:23;14.90;99.90
10278;DHT22;5184;51.376;7.148;2022-10-29T02:37:49;14.80;99.90
10278;DHT22;5184;51.376;7.148;2022-10-29T02:40:16;14.80;99.90
10278;DHT22;5184;51.376;7.148;2022-10-29T02:42:42;14.80;99.90
10278;DHT22;5184;51.376;7.148;2022-10-29T02:45:09;14.70;99.90
10278;DHT22;5184;51.376;7.148;2022-10-29T02:47:36;14.70;99.90
10278;DHT22;5184;51.376;7.148;2022-10-29T02:50:02;14.60;99.90
10278;DHT22;5184;51.376;7.148;2022-10-29T02:52:29;14.60;1.00
10278;DHT22;5184;51.376;7.148;2022-10-29T02:54:56;14.50;1.00
10278;DHT22;5184;51.376;7.148;2022-10-29T02:57:23;14.50;1.00
10278;DHT22;5184;51.376;7.148;2022-10-29T02:59:50;14.40;1.00
10278;DHT22;5184;51.376;7.148;2022-10-29T03:02:18;14.40;1.00
10278;DHT22;5184;51.376;7.148;2022-10-29T03:04:45;14.30;1.00
10278;DHT22;5184;51.376;7.148;2022-10-29T03:07:12;14.30;1.00
10278;DHT22;5184;51.376;7.148;2022-10-29T03:09:39;14.30;1.00
10278;DHT22;5184;51.376;7.148;2022-10-29T03:12:06;14.30;1.00
10278;DHT22;5184;51.376;7.148;2022-10-29T03:14:33;14.20;1.00
10278;DHT22;5184;51.376;7.148;2022-10-29T03:17:01;14.20;1.00
10278;DHT22;5184;51.376;7.148;2022-10-29T03:19:28;14.20;1.00
10278;DHT22;5184;51.376;7.148;2022-10-29T03:21:55;14.20;1.00
10278;DHT22;5184;51.376;7.148;2022-10-29T03:24:21;14.20;1.00
10278;DHT22;5184;51.376;7.148;2022-10-29T03:26:48;14.10;1.00
10278;DHT22;5184;51.376;7.148;2022-10-29T03:29:14;14.10;1.00
10278;DHT22;5184;51.376;7.148;2022-10-29T03:31:41;14.10;1.00
10278;DHT22;5184;51.376;7.148;2022-10-29T03:34:08;14.10;1.00
10278;DHT22;5184;51.376;7.148;2022-10-29T03:36:36;14.10;1.00
10278;DHT22;5184;51.376;7.148;2022-10-29T03:39:03;14.10;1.00
10278;DHT22;5184;51.376;7.148;2022-10-29T03:41:30;14.10;1.00
10278;DHT22;5184;51.376;7.148;2022-10-29T03:43:56;14.10;1.00
10278;DHT22;5184;51.376;7.148;2022-10-29T03:46:23;14.10;1.00
10278;DHT22;5184;51.376;7.148;2022-10-29T03:48:49;15.80;1.00
10278;DHT22;5184;51.376;7.148;2022-10-29T03:51:16;14.10;40.30
10278;DHT22;5184;51.376;7.148;2022-10-29T03:53:43;14.10;63.00
10278;DHT22;5184;51.376;7.148;2022-10-29T03:56:09;14.10;90.80
10278;DHT22;5184;51.376;7.148;2022-10-29T03:58:36;14.10;99.70
10278;DHT22;5184;51.376;7.148;2022-10-29T04:01:04;14.10;99.90
10278;DHT22;5184;51.376;7.148;2022-10-29T04:03:30;14.10;99.90
10278;DHT22;5184;51.376;7.148;2022-10-29T04:05:57;14.10;99.90
10278;DHT22;5184;51.376;7.148;2022-10-29T04:08:23;14.10;99.90
10278;DHT22;5184;51.376;7.148;2022-10-29T04:10:50;14.10;99.90
10278;DHT22;5184;51.376;7.148;2022-10-29T04:13:18;14.00;99.90
10278;DHT22;5184;51.376;7.148;2022-10-29T04:15:45;14.10;99.90
10278;DHT22;5184;51.376;7.148;2022-10-29T04:18:12;14.10;99.90
10278;DHT22;5184;51.376;7.148;2022-10-29T04:20:39;14.10;99.90
10278;DHT22;5184;51.376;7.148;2022-10-29T04:23:05;14.00;99.90
10278;DHT22;5184;51.376;7.148;2022-10-29T04:25:32;14.00;99.90
10278;DHT22;5184;51.376;7.148;2022-10-29T04:27:59;14.00;99.90
10278;DHT22;5184;51.376;7.148;2022-10-29T04:30:26;14.00;99.90
10278;DHT22;5184;51.376;7.148;2022-10-29T04:32:56;14.00;99.90
10278;DHT22;5184;51.376;7.148;2022-10-29T04:35:22;13.90;99.90
10278;DHT22;5184;51.376;7.148;2022-10-29T04:37:49;13.90;99.90
10278;DHT22;5184;51.376;7.148;2022-10-29T04:40:16;13.80;99.90
10278;DHT22;5184;51.376;7.148;2022-10-29T04:42:43;13.70;99.90
10278;DHT22;5184;51.376;7.148;2022-10-29T04:45:09;13.70;99.90
10278;DHT22;5184;51.376;7.148;2022-10-29T04:47:36;13.60;99.90
10278;DHT22;5184;51.376;7.148;2022-10-29T04:50:04;13.70;99.90
10278;DHT22;5184;51.376;7.148;2022-10-29T04:52:31;13.70;99.90
10278;DHT22;5184;51.376;7.148;2022-10-29T04:54:59;13.70;99.90
10278;DHT22;5184;51.376;7.148;2022-10-29T04:57:25;13.70;99.90
10278;DHT22;5184;51.376;7.148;2022-10-29T04:59:52;13.70;99.90
10278;DHT22;5184;51.376;7.148;2022-10-29T05:02:18;13.70;99.90
10278;DHT22;5184;51.376;7.148;2022-10-29T05:04:46;13.70;99.90
10278;DHT22;5184;51.376;7.148;2022-10-29T05:07:13;13.80;99.90
10278;DHT22;5184;51.376;7.148;2022-10-29T05:09:41;13.90;99.90
10278;DHT22;5184;51.376;7.148;2022-10-29T05:12:07;13.80;99.90
10278;DHT22;5184;51.376;7.148;2022-10-29T05:14:35;14.00;99.90
10278;DHT22;5184;51.376;7.148;2022-10-29T05:17:03;14.00;99.90
10278;DHT22;5184;51.376;7.148;2022-10-29T05:19:29;14.00;99.90
10278;DHT22;5184;51.376;7.148;2022-10-29T05:21:56;14.00;99.90
10278;DHT22;5184;51.376;7.148;2022-10-29T05:24:22;14.10;99.90
10278;DHT22;5184;51.376;7.148;2022-10-29T05:26:50;14.10;99.90
10278;DHT22;5184;51.376;7.148;2022-10-29T05:29:17;14.20;99.90
10278;DHT22;5184;51.376;7.148;2022-10-29T05:31:44;14.10;99.90
10278;DHT22;5184;51.376;7.148;2022-10-29T05:34:10;14.20;99.90
10278;DHT22;5184;51.376;7.148;2022-10-29T05:36:37;14.20;99.90
10278;DHT22;5184;51.376;7.148;2022-10-29T05:39:04;14.10;99.90
10278;DHT22;5184;51.376;7.148;2022-10-29T05:41:32;14.00;99.90
10278;DHT22;5184;51.376;7.148;2022-10-29T05:43:59;14.00;99.90
10278;DHT22;5184;51.376;7.148;2022-10-29T05:46:26;14.00;99.90
10278;DHT22;5184;51.376;7.148;2022-10-29T05:48:52;14.00;99.90
10278;DHT22;5184;51.376;7.148;2022-10-29T05:51:19;14.00;99.90
10278;DHT22;5184;51.376;7.148;2022-10-29T05:53:46;14.10;99.90
10278;DHT22;5184;51.376;7.148;2022-10-29T05:56:14;14.10;99.90
10278;DHT22;5184;51.376;7.148;2022-10-29T05:58:40;14.00;99.90
10278;DHT22;5184;51.376;7.148;2022-10-29T06:01:08;14.10;99.90
10278;DHT22;5184;51.376;7.148;2022-10-29T06:03:34;14.10;99.90
10278;DHT22;5184;51.376;7.148;2022-10-29T06:06:01;14.10;99.90
10278;DHT22;5184;51.376;7.148;2022-10-29T06:08:27;14.10;99.90
10278;DHT22;5184;51.376;7.148;2022-10-29T06:10:54;14.10;99.90
10278;DHT22;5184;51.376;7.148;2022-10-29T06:13:21;14.10;99.90
10278;DHT22;5184;51.376;7.148;2022-10-29T06:15:48;14.10;99.90
10278;DHT22;5184;51.376;7.148;2022-10-29T06:18:15;14.10;99.90
10278;DHT22;5184;51.376;7.148;2022-10-29T06:20:41;14.10;99.90
10278;DHT22;5184;51.376;7.148;2022-10-29T06:23:09;14.00;99.90
10278;DHT22;5184;51.376;7.148;2022-10-29T06:25:35;14.00;99.90
10278;DHT22;5184;51.376;7.148;2022-10-29T06:28:04;14.10;99.90
10278;DHT22;5184;51.376;7.148;2022-10-29T06:30:31;14.00;99.90
10278;DHT22;5184;51.376;7.148;2022-10-29T06:32:58;14.10;99.90
10278;DHT22;5184;51.376;7.148;2022-10-29T06:35:23;14.00;99.90
10278;DHT22;5184;51.376;7.148;2022-10-29T06:37:51;14.00;99.90
10278;DHT22;5184;51.376;7.148;2022-10-29T06:40:17;14.00;99.90
10278;DHT22;5184;51.376;7.148;2022-10-29T06:42:45;14.00;99.90
10278;DHT22;5184;51.376;7.148;2022-10-29T06:45:13;14.00;99.90
10278;DHT22;5184;51.376;7.148;2022-10-29T06:47:41;14.00;99.90
10278;DHT22;5184;51.376;7.148;2022-10-29T06:50:08;14.00;99.90
10278;DHT22;5184;51.376;7.148;2022-10-29T06:52:35;14.20;99.90
10278;DHT22;5184;51.376;7.148;2022-10-29T06:55:03;14.10;99.90
10278;DHT22;5184;51.376;7.148;2022-10-29T06:57:29;14.20;99.90
10278;DHT22;5184;51.376;7.148;2022-10-29T06:59:56;14.10;99.90
10278;DHT22;5184;51.376;7.148;2022-10-29T07:02:23;14.10;99.90
10278;DHT22;5184;51.376;7.148;2022-10-29T07:04:51;14.20;99.90
10278;DHT22;5184;51.376;7.148;2022-10-29T07:07:17;14.20;99.90
10278;DHT22;5184;51.376;7.148;2022-10-29T07:09:44;14.30;99.90
10278;DHT22;5184;51.376;7.148;2022-10-29T07:12:10;14.40;99.90
10278;DHT22;5184;51.376;7.148;2022-10-29T07:14:38;14.60;99.90
10278;DHT22;5184;51.376;7.148;2022-10-29T07:17:05;14.70;99.90
10278;DHT22;5184;51.376;7.148;2022-10-29T07:19:32;14.70;99.90
10278;DHT22;5184;51.376;7.148;2022-10-29T07:21:59;14.70;99.90
10278;DHT22;5184;51.376;7.148;2022-10-29T07:24:26;14.70;99.90
10278;DHT22;5184;51.376;7.148;2022-10-29T07:26:52;12.30;97.90
10278;DHT22;5184;51.376;7.148;2022-10-29T07:29:20;15.20;1.00
10278;DHT22;5184;51.376;7.148;2022-10-29T07:31:47;15.30;1.00
10278;DHT22;5184;51.376;7.148;2022-10-29T07:34:14;15.50;66.20
10278;DHT22;5184;51.376;7.148;2022-10-29T07:36:41;15.50;80.70
10278;DHT22;5184;51.376;7.148;2022-10-29T07:39:07;15.70;99.90
10278;DHT22;5184;51.376;7.148;2022-10-29T07:41:34;15.70;99.90
10278;DHT22;5184;51.376;7.148;2022-10-29T07:44:01;15.80;99.90
10278;DHT22;5184;51.376;7.148;2022-10-29T07:46:27;15.90;1.00
10278;DHT22;5184;51.376;7.148;2022-10-29T07:48:55;16.40;1.00
10278;DHT22;5184;51.376;7.148;2022-10-29T07:51:22;16.40;1.00
10278;DHT22;5184;51.376;7.148;2022-10-29T07:53:49;16.40;1.00
10278;DHT22;5184;51.376;7.148;2022-10-29T07:56:15;16.40;1.00
10278;DHT22;5184;51.376;7.148;2022-10-29T07:58:42;16.30;99.90
10278;DHT22;5184;51.376;7.148;2022-10-29T08:01:08;16.30;1.00
10278;DHT22;5184;51.376;7.148;2022-10-29T08:03:35;16.30;99.90
10278;DHT22;5184;51.376;7.148;2022-10-29T08:06:02;16.30;99.90
10278;DHT22;5184;51.376;7.148;2022-10-29T08:08:28;16.40;99.90
10278;DHT22;5184;51.376;7.148;2022-10-29T08:10:58;16.50;99.90
10278;DHT22;5184;51.376;7.148;2022-10-29T08:13:24;16.60;1.00
10278;DHT22;5184;51.376;7.148;2022-10-29T08:15:51;16.70;99.90
10278;DHT22;5184;51.376;7.148;2022-10-29T08:18:18;16.90;99.90
10278;DHT22;5184;51.376;7.148;2022-10-29T08:20:45;17.10;99.90
10278;DHT22;5184;51.376;7.148;2022-10-29T08:23:12;17.10;99.90
10278;DHT22;5184;51.376;7.148;2022-10-29T08:25:38;17.20;1.00
10278;DHT22;5184;51.376;7.148;2022-10-29T08:28:08;17.40;1.00
10278;DHT22;5184;51.376;7.148;2022-10-29T08:30:35;17.40;1.00
10278;DHT22;5184;51.376;7.148;2022-10-29T08:33:01;17.40;1.00
10278;DHT22;5184;51.376;7.148;2022-10-29T08:35:28;17.50;99.90
10278;DHT22;5184;51.376;7.148;2022-10-29T08:37:55;17.60;1.00
10278;DHT22;5184;51.376;7.148;2022-10-29T08:40:31;17.60;99.90
10278;DHT22;5184;51.376;7.148;2022-10-29T08:43:21;17.70;99.90
10278;DHT22;5184;51.376;7.148;2022-10-29T08:45:45;17.70;1.00
10278;DHT22;5184;51.376;7.148;2022-10-29T08:48:26;17.70;1.00
10278;DHT22;5184;51.376;7.148;2022-10-29T08:50:54;17.70;1.00
10278;DHT22;5184;51.376;7.148;2022-10-29T08:53:21;17.90;99.90
10278;DHT22;5184;51.376;7.148;2022-10-29T08:55:47;18.00;99.90
10278;DHT22;5184;51.376;7.148;2022-10-29T08:58:22;18.00;99.90
10278;DHT22;5184;51.376;7.148;2022-10-29T09:00:46;18.20;99.90
10278;DHT22;5184;51.376;7.148;2022-10-29T09:03:13;18.30;1.00
10278;DHT22;5184;51.376;7.148;2022-10-29T09:11:27;18.80;99.90
10278;DHT22;5184;51.376;7.148;2022-10-29T09:14:07;18.90;99.90
10278;DHT22;5184;51.376;7.148;2022-10-29T09:16:34;19.00;1.00
10278;DHT22;5184;51.376;7.148;2022-10-29T09:27:37;19.40;1.00
10278;DHT22;5184;51.376;7.148;2022-10-29T09:30:07;19.50;1.00
10278;DHT22;5184;51.376;7.148;2022-10-29T09:32:34;19.60;99.90
10278;DHT22;5184;51.376;7.148;2022-10-29T09:35:03;19.70;1.00
10278;DHT22;5184;51.376;7.148;2022-10-29T09:37:38;19.60;1.00
10278;DHT22;5184;51.376;7.148;2022-10-29T09:39:59;19.70;93.40
10278;DHT22;5184;51.376;7.148;2022-10-29T09:42:30;19.80;1.00
10278;DHT22;5184;51.376;7.148;2022-10-29T09:44:54;19.80;1.00
10278;DHT22;5184;51.376;7.148;2022-10-29T09:48:27;19.90;1.00
10278;DHT22;5184;51.376;7.148;2022-10-29T09:50:10;20.00;1.00
10278;DHT22;5184;51.376;7.148;2022-10-29T09:52:33;20.10;1.00
10278;DHT22;5184;51.376;7.148;2022-10-29T09:54:59;20.20;1.00
10278;DHT22;5184;51.376;7.148;2022-10-29T09:57:26;20.20;99.90
10278;DHT22;5184;51.376;7.148;2022-10-29T09:59:54;20.30;99.90
10278;DHT22;5184;51.376;7.148;2022-10-29T10:02:27;20.40;99.90
10278;DHT22;5184;51.376;7.148;2022-10-29T10:04:54;20.40;99.90
10278;DHT22;5184;51.376;7.148;2022-10-29T10:07:20;20.40;99.90
10278;DHT22;5184;51.376;7.148;2022-10-29T10:12:23;20.60;99.90
10278;DHT22;5184;51.376;7.148;2022-10-29T10:14:58;20.60;99.90
10278;DHT22;5184;51.376;7.148;2022-10-29T10:17:15;20.70;99.90
10278;DHT22;5184;51.376;7.148;2022-10-29T10:19:43;20.70;99.90
10278;DHT22;5184;51.376;7.148;2022-10-29T10:22:16;20.80;99.90
10278;DHT22;5184;51.376;7.148;2022-10-29T10:24:41;20.80;99.90
10278;DHT22;5184;51.376;7.148;2022-10-29T10:27:29;20.80;99.90
10278;DHT22;5184;51.376;7.148;2022-10-29T10:30:09;20.80;99.90
10278;DHT22;5184;51.376;7.148;2022-10-29T10:32:32;20.80;99.90
10278;DHT22;5184;51.376;7.148;2022-10-29T10:34:59;20.80;99.90
10278;DHT22;5184;51.376;7.148;2022-10-29T10:37:25;20.80;99.90
10278;DHT22;5184;51.376;7.148;2022-10-29T10:39:58;20.80;90.50
10278;DHT22;5184;51.376;7.148;2022-10-29T10:42:25;20.80;99.90
10278;DHT22;5184;51.376;7.148;2022-10-29T10:44:58;21.10;1.00
10278;DHT22;5184;51.376;7.148;2022-10-29T10:47:27;21.10;1.00
10278;DHT22;5184;51.376;7.148;2022-10-29T10:49:53;21.20;6.30
10278;DHT22;5184;51.376;7.148;2022-10-29T10:52:25;21.30;1.00
10278;DHT22;5184;51.376;7.148;2022-10-29T10:54:55;21.30;1.00
10278;DHT22;5184;51.376;7.148;2022-10-29T10:57:21;21.30;1.00
10278;DHT22;5184;51.376;7.148;2022-10-29T11:02:30;21.40;1.00
10278;DHT22;5184;51.376;7.148;2022-10-29T11:04:57;21.30;1.00
10278;DHT22;5184;51.376;7.148;2022-10-29T11:07:22;21.30;1.00
10278;DHT22;5184;51.376;7.148;2022-10-29T11:09:49;21.30;1.00
10278;DHT22;5184;51.376;7.148;2022-10-29T11:12:32;21.50;1.00
10278;DHT22;5184;51.376;7.148;2022-10-29T11:15:00;21.60;1.00
10278;DHT22;5184;51.376;7.148;2022-10-29T11:17:27;21.70;1.00
10278;DHT22;5184;51.376;7.148;2022-10-29T11:19:53;21.60;1.00
10278;DHT22;5184;51.376;7.148;2022-10-29T11:22:23;21.60;99.90
10278;DHT22;5184;51.376;7.148;2022-10-29T11:25:13;21.60;99.90
10278;DHT22;5184;51.376;7.148;2022-10-29T11:27:36;21.60;1.00
10278;DHT22;5184;51.376;7.148;2022-10-29T11:30:08;21.60;99.90
10278;DHT22;5184;51.376;7.148;2022-10-29T11:32:51;21.60;99.90
10278;DHT22;5184;51.376;7.148;2022-10-29T11:35:15;21.70;1.00
10278;DHT22;5184;51.376;7.148;2022-10-29T11:37:56;21.70;1.00
10278;DHT22;5184;51.376;7.148;2022-10-29T11:40:27;21.80;99.90
10278;DHT22;5184;51.376;7.148;2022-10-29T11:42:49;21.80;99.90
10278;DHT22;5184;51.376;7.148;2022-10-29T11:45:19;21.90;99.90
10278;DHT22;5184;51.376;7.148;2022-10-29T11:47:53;21.90;99.90
10278;DHT22;5184;51.376;7.148;2022-10-29T11:50:34;22.00;99.90
10278;DHT22;5184;51.376;7.148;2022-10-29T11:53:19;22.00;99.90
10278;DHT22;5184;51.376;7.148;2022-10-29T11:56:03;22.00;99.90
10278;DHT22;5184;51.376;7.148;2022-10-29T11:58:34;22.10;99.90
10278;DHT22;5184;51.376;7.148;2022-10-29T12:01:02;22.10;99.90
10278;DHT22;5184;51.376;7.148;2022-10-29T12:03:33;22.10;99.90
10278;DHT22;5184;51.376;7.148;2022-10-29T12:06:03;22.20;99.90
10278;DHT22;5184;51.376;7.148;2022-10-29T12:08:57;22.20;99.90
10278;DHT22;5184;51.376;7.148;2022-10-29T12:11:55;22.20;99.90
10278;DHT22;5184;51.376;7.148;2022-10-29T12:17:08;22.20;99.90
10278;DHT22;5184;51.376;7.148;2022-10-29T12:19:36;22.20;1.00
10278;DHT22;5184;51.376;7.148;2022-10-29T12:22:27;22.20;99.90
10278;DHT22;5184;51.376;7.148;2022-10-29T12:24:57;22.20;99.90
10278;DHT22;5184;51.376;7.148;2022-10-29T12:27:26;22.40;99.90
10278;DHT22;5184;51.376;7.148;2022-10-29T12:32:32;22.50;99.90
10278;DHT22;5184;51.376;7.148;2022-10-29T12:34:58;22.50;99.90
10278;DHT22;5184;51.376;7.148;2022-10-29T12:37:32;22.60;99.90
10278;DHT22;5184;51.376;7.148;2022-10-29T12:39:56;22.60;99.90
10278;DHT22;5184;51.376;7.148;2022-10-29T12:42:25;22.60;99.90
10278;DHT22;5184;51.376;7.148;2022-10-29T12:45:12;22.60;99.90
10278;DHT22;5184;51.376;7.148;2022-10-29T12:47:37;22.60;99.90
10278;DHT22;5184;51.376;7.148;2022-10-29T12:50:38;22.60;99.90
10278;DHT22;5184;51.376;7.148;2022-10-29T12:53:09;22.60;99.90
10278;DHT22;5184;51.376;7.148;2022-10-29T12:55:30;22.70;99.90
10278;DHT22;5184;51.376;7.148;2022-10-29T12:57:57;22.90;99.90
10278;DHT22;5184;51.376;7.148;2022-10-29T13:00:43;23.00;99.90
10278;DHT22;5184;51.376;7.148;2022-10-29T13:03:09;23.20;2.20
10278;DHT22;5184;51.376;7.148;2022-10-29T13:05:37;22.60;2.20
10278;DHT22;5184;51.376;7.148;2022-10-29T13:08:17;23.50;14.60
10278;DHT22;5184;51.376;7.148;2022-10-29T13:10:49;23.50;37.00
10278;DHT22;5184;51.376;7.148;2022-10-29T13:13:19;23.40;1.00
10278;DHT22;5184;51.376;7.148;2022-10-29T13:16:01;23.40;1.00
10278;DHT22;5184;51.376;7.148;2022-10-29T13:18:33;23.30;92.40
10278;DHT22;5184;51.376;7.148;2022-10-29T13:20:56;23.30;91.50
10278;DHT22;5184;51.376;7.148;2022-10-29T13:23:33;23.50;65.10
10278;DHT22;5184;51.376;7.148;2022-10-29T13:26:01;23.50;61.90
10278;DHT22;5184;51.376;7.148;2022-10-29T13:28:44;23.60;19.10
10278;DHT22;5184;51.376;7.148;2022-10-29T13:34:07;23.60;26.80
10278;DHT22;5184;51.376;7.148;2022-10-29T13:36:34;23.60;47.70
10278;DHT22;5184;51.376;7.148;2022-10-29T13:39:01;23.60;90.50
10278;DHT22;5184;51.376;7.148;2022-10-29T13:41:36;23.60;87.90
10278;DHT22;5184;51.376;7.148;2022-10-29T13:44:09;23.60;87.20
10278;DHT22;5184;51.376;7.148;2022-10-29T13:46:45;23.60;17.90
10278;DHT22;5184;51.376;7.148;2022-10-29T13:49:14;23.60;99.90
10278;DHT22;5184;51.376;7.148;2022-10-29T13:51:48;23.50;39.60
10278;DHT22;5184;51.376;7.148;2022-10-29T13:54:16;23.60;40.00
10278;DHT22;5184;51.376;7.148;2022-10-29T13:56:45;23.40;99.90
10278;DHT22;5184;51.376;7.148;2022-10-29T13:59:16;23.40;99.90
10278;DHT22;5184;51.376;7.148;2022-10-29T14:01:40;23.30;99.90
10278;DHT22;5184;51.376;7.148;2022-10-29T14:04:23;23.40;99.90
10278;DHT22;5184;51.376;7.148;2022-10-29T14:06:48;23.60;99.90
10278;DHT22;5184;51.376;7.148;2022-10-29T14:09:19;23.60;99.90
10278;DHT22;5184;51.376;7.148;2022-10-29T14:11:48;23.60;99.90
10278;DHT22;5184;51.376;7.148;2022-10-29T14:14:19;23.50;99.90
10278;DHT22;5184;51.376;7.148;2022-10-29T14:16:42;23.50;99.90
10278;DHT22;5184;51.376;7.148;2022-10-29T14:19:12;23.50;99.90
10278;DHT22;5184;51.376;7.148;2022-10-29T14:21:38;23.50;99.90
10278;DHT22;5184;51.376;7.148;2022-10-29T14:24:06;23.50;99.90
10278;DHT22;5184;51.376;7.148;2022-10-29T14:26:33;23.20;99.90
10278;DHT22;5184;51.376;7.148;2022-10-29T14:29:24;23.20;99.90
10278;DHT22;5184;51.376;7.148;2022-10-29T14:32:03;23.10;99.90
10278;DHT22;5184;51.376;7.148;2022-10-29T14:34:29;23.10;99.90
10278;DHT22;5184;51.376;7.148;2022-10-29T14:36:58;23.00;99.90
10278;DHT22;5184;51.376;7.148;2022-10-29T14:39:25;23.00;99.90
10278;DHT22;5184;51.376;7.148;2022-10-29T14:41:50;22.90;99.90
10278;DHT22;5184;51.376;7.148;2022-10-29T14:44:18;22.90;99.90
10278;DHT22;5184;51.376;7.148;2022-10-29T14:46:55;22.80;99.90
10278;DHT22;5184;51.376;7.148;2022-10-29T14:49:20;22.60;99.90
10278;DHT22;5184;51.376;7.148;2022-10-29T14:51:52;22.40;1.00
10278;DHT22;5184;51.376;7.148;2022-10-29T14:54:28;22.40;1.00
10278;DHT22;5184;51.376;7.148;2022-10-29T14:56:56;22.30;1.00
10278;DHT22;5184;51.376;7.148;2022-10-29T14:59:23;22.20;1.00
10278;DHT22;5184;51.376;7.148;2022-10-29T15:01:52;22.20;1.00
10278;DHT22;5184;51.376;7.148;2022-10-29T15:04:20;22.10;1.00
10278;DHT22;5184;51.376;7.148;2022-10-29T15:06:46;22.00;99.90
10278;DHT22;5184;51.376;7.148;2022-10-29T15:09:14;21.90;99.90
10278;DHT22;5184;51.376;7.148;2022-10-29T15:11:46;21.80;99.90
10278;DHT22;5184;51.376;7.148;2022-10-29T15:14:36;21.70;99.90
10278;DHT22;5184;51.376;7.148;2022-10-29T15:17:06;21.70;1.00
10278;DHT22;5184;51.376;7.148;2022-10-29T15:19:29;21.60;99.90
10278;DHT22;5184;51.376;7.148;2022-10-29T15:21:56;21.60;19.00
10278;DHT22;5184;51.376;7.148;2022-10-29T15:24:23;21.60;9.90
10278;DHT22;5184;51.376;7.148;2022-10-29T15:26:51;21.60;1.00
10278;DHT22;5184;51.376;7.148;2022-10-29T15:29:17;21.50;1.00
10278;DHT22;5184;51.376;7.148;2022-10-29T15:31:45;21.40;1.00
10278;DHT22;5184;51.376;7.148;2022-10-29T15:34:27;21.40;1.00
10278;DHT22;5184;51.376;7.148;2022-10-29T15:36:47;21.30;1.00
10278;DHT22;5184;51.376;7.148;2022-10-29T15:39:22;21.30;1.00
10278;DHT22;5184;51.376;7.148;2022-10-29T15:41:49;21.10;1.00
10278;DHT22;5184;51.376;7.148;2022-10-29T15:44:25;21.10;1.00
10278;DHT22;5184;51.376;7.148;2022-10-29T15:46:49;21.10;1.00
10278;DHT22;5184;51.376;7.148;2022-10-29T15:49:16;21.00;1.00
10278;DHT22;5184;51.376;7.148;2022-10-29T15:51:42;21.00;99.80
10278;DHT22;5184;51.376;7.148;2022-10-29T15:54:10;20.90;71.70
10278;DHT22;5184;51.376;7.148;2022-10-29T15:56:36;20.80;55.00
10278;DHT22;5184;51.376;7.148;2022-10-29T15:59:03;20.80;45.50
10278;DHT22;5184;51.376;7.148;2022-10-29T16:01:29;20.80;23.30
10278;DHT22;5184;51.376;7.148;2022-10-29T16:03:56;19.30;49.00
10278;DHT22;5184;51.376;7.148;2022-10-29T16:06:23;20.70;99.90
10278;DHT22;5184;51.376;7.148;2022-10-29T16:08:50;20.60;3.50
10278;DHT22;5184;51.376;7.148;2022-10-29T16:11:18;20.60;1.00
10278;DHT22;5184;51.376;7.148;2022-10-29T16:13:44;20.60;1.00
10278;DHT22;5184;51.376;7.148;2022-10-29T16:16:13;20.60;1.00
10278;DHT22;5184;51.376;7.148;2022-10-29T16:18:40;20.60;1.00
10278;DHT22;5184;51.376;7.148;2022-10-29T16:21:07;20.50;1.00
10278;DHT22;5184;51.376;7.148;2022-10-29T16:23:35;20.50;1.00
10278;DHT22;5184;51.376;7.148;2022-10-29T16:26:00;20.50;1.00
10278;DHT22;5184;51.376;7.148;2022-10-29T16:28:28;20.50;1.00
10278;DHT22;5184;51.376;7.148;2022-10-29T16:30:56;20.50;1.00
10278;DHT22;5184;51.376;7.148;2022-10-29T16:33:22;20.40;1.00
10278;DHT22;5184;51.376;7.148;2022-10-29T16:35:50;20.40;1.00
10278;DHT22;5184;51.376;7.148;2022-10-29T16:38:16;20.40;1.00
10278;DHT22;5184;51.376;7.148;2022-10-29T16:40:43;20.40;1.00
10278;DHT22;5184;51.376;7.148;2022-10-29T16:43:09;20.30;1.00